Time;durP1;ratioP1;P1;durP2;ratioP2;P2;SDS_P1;SDS_P2;PMS_P1;PMS_P2;Temp;Humidity;BMP_temperature;BMP_pressure;BME280_temperature;BME280_humidity;BME280_pressure;Samples;Min_cycle;Max_cycle;Signal;HPM_P1;HPM_P2
2022/05/26 00:01:05;;;;;;;25.40;12.15;;;13.70;99.90;;;;;;5002275;28;20092;-62
2022/05/26 00:03:32;;;;;;;26.25;12.30;;;13.70;99.90;;;;;;5013009;28;20144;-63
2022/05/26 00:05:59;;;;;;;18.65;12.50;;;13.70;99.90;;;;;;5002646;28;20400;-65
2022/05/26 00:08:26;;;;;;;32.45;12.23;;;13.70;99.90;;;;;;4992880;28;20093;-63
2022/05/26 00:10:52;;;;;;;23.20;12.68;;;13.70;99.90;;;;;;4989212;28;20047;-63
2022/05/26 00:13:17;;;;;;;24.45;12.68;;;13.70;99.90;;;;;;4985755;28;20088;-63
2022/05/26 00:15:43;;;;;;;23.90;13.02;;;13.70;99.90;;;;;;4985448;28;20049;-63
2022/05/26 00:18:09;;;;;;;25.75;13.30;;;13.70;99.90;;;;;;5012345;28;20389;-63
2022/05/26 00:20:34;;;;;;;23.38;12.95;;;13.70;99.90;;;;;;5009733;28;20046;-65
2022/05/26 00:23:00;;;;;;;24.10;13.50;;;13.70;99.90;;;;;;4991510;28;20141;-62
2022/05/26 00:25:26;;;;;;;24.00;13.55;;;13.70;99.90;;;;;;4977158;28;20254;-63
2022/05/26 00:27:51;;;;;;;22.88;13.63;;;13.70;99.90;;;;;;5003955;28;20136;-62
2022/05/26 00:30:17;;;;;;;24.25;14.60;;;13.80;99.90;;;;;;4992238;28;20038;-63
2022/05/26 00:32:43;;;;;;;22.58;13.02;;;13.80;99.90;;;;;;4974922;28;20389;-65
2022/05/26 00:35:09;;;;;;;24.02;13.98;;;13.80;99.90;;;;;;4992503;28;20072;-62
2022/05/26 00:37:35;;;;;;;26.45;14.20;;;13.80;99.90;;;;;;4991677;28;20516;-62
2022/05/26 00:40:02;;;;;;;25.92;13.85;;;13.70;99.90;;;;;;4991137;28;20084;-62
2022/05/26 00:42:29;;;;;;;25.90;14.68;;;13.80;99.90;;;;;;5004507;28;20085;-62
2022/05/26 00:44:54;;;;;;;28.67;14.48;;;13.70;99.90;;;;;;4990997;28;20049;-62
2022/05/26 00:47:27;;;;;;;24.65;14.85;;;13.80;99.90;;;;;;4998750;28;20408;-62
2022/05/26 00:50:16;;;;;;;23.73;14.60;;;13.70;99.90;;;;;;4976836;28;20046;-63
2022/05/26 00:52:46;;;;;;;25.98;14.90;;;13.70;99.90;;;;;;4984795;28;20046;-63
2022/05/26 00:55:33;;;;;;;28.95;15.50;;;13.70;99.90;;;;;;5012642;28;20477;-62
2022/05/26 00:58:11;;;;;;;26.95;14.73;;;13.70;99.90;;;;;;4977712;28;20047;-62
2022/05/26 01:00:38;;;;;;;28.85;14.68;;;13.70;99.90;;;;;;4992308;28;20038;-62
2022/05/26 01:03:11;;;;;;;27.85;15.23;;;13.70;99.90;;;;;;4992051;28;20089;-62
2022/05/26 01:06:01;;;;;;;26.45;14.57;;;13.70;99.90;;;;;;4979553;28;20108;-61
2022/05/26 01:08:38;;;;;;;30.60;15.23;;;13.70;99.90;;;;;;5011626;28;20041;-62
2022/05/26 01:11:05;;;;;;;33.33;15.75;;;13.70;99.90;;;;;;5000759;28;20093;-62
2022/05/26 01:13:31;;;;;;;30.80;15.30;;;13.70;99.90;;;;;;4992004;28;20130;-62
2022/05/26 01:16:26;;;;;;;30.17;15.35;;;13.70;99.90;;;;;;4973357;28;20081;-62
2022/05/26 01:19:32;;;;;;;29.30;16.17;;;13.70;99.90;;;;;;4957607;28;20415;-62
2022/05/26 01:22:33;;;;;;;27.20;14.25;;;13.70;99.90;;;;;;4945864;28;20444;-62
2022/05/26 01:25:25;;;;;;;28.52;14.85;;;13.70;99.90;;;;;;4973940;28;20120;-62
2022/05/26 01:28:13;;;;;;;31.05;15.25;;;13.70;99.90;;;;;;4991693;28;20074;-62
2022/05/26 01:31:11;;;;;;;29.48;15.00;;;13.70;99.90;;;;;;4995837;28;20040;-62
2022/05/26 01:33:36;;;;;;;27.52;15.23;;;13.70;99.90;;;;;;4991584;28;20445;-64
2022/05/26 01:36:21;;;;;;;34.63;16.13;;;13.70;99.90;;;;;;4991600;28;20046;-62
2022/05/26 01:39:13;;;;;;;33.40;16.45;;;13.70;99.90;;;;;;4991225;28;20034;-62
2022/05/26 01:42:07;;;;;;;34.90;15.23;;;13.70;99.90;;;;;;4989989;28;20038;-62
2022/05/26 01:45:05;;;;;;;31.85;15.40;;;13.70;99.90;;;;;;4986088;28;20520;-65
2022/05/26 01:47:31;;;;;;;36.15;16.30;;;13.70;99.90;;;;;;4998276;28;20103;-61
2022/05/26 01:50:05;;;;;;;36.78;15.02;;;13.70;99.90;;;;;;4981021;28;20564;-64
2022/05/26 01:52:40;;;;;;;30.50;15.43;;;13.70;99.90;;;;;;4957467;28;20038;-64
2022/05/26 01:55:24;;;;;;;36.28;15.20;;;13.80;99.90;;;;;;4972129;28;20088;-62
2022/05/26 01:58:09;;;;;;;32.05;14.68;;;13.80;99.90;;;;;;4972093;28;20057;-61
2022/05/26 02:00:36;;;;;;;28.95;14.85;;;13.80;99.90;;;;;;4989705;28;20042;-63
2022/05/26 02:03:18;;;;;;;31.80;14.07;;;13.80;99.90;;;;;;4981761;28;20046;-62
2022/05/26 02:05:52;;;;;;;33.08;14.82;;;13.80;99.90;;;;;;4995967;28;20092;-62
2022/05/26 02:08:38;;;;;;;31.95;14.88;;;13.80;99.90;;;;;;4971800;28;20069;-62
2022/05/26 02:11:14;;;;;;;40.00;15.20;;;13.80;99.90;;;;;;5008877;28;20560;-62
2022/05/26 02:13:40;;;;;;;32.40;14.13;;;13.80;99.90;;;;;;4972567;28;20047;-61
2022/05/26 02:16:44;;;;;;;30.15;13.57;;;13.80;99.90;;;;;;4983869;28;20404;-64
2022/05/26 02:19:33;;;;;;;37.97;13.48;;;13.80;99.90;;;;;;4931472;28;20058;-62
2022/05/26 02:22:14;;;;;;;30.42;12.82;;;13.80;99.90;;;;;;4972610;28;20074;-62
2022/05/26 02:24:58;;;;;;;30.05;13.40;;;13.80;99.90;;;;;;4971221;28;20069;-64
2022/05/26 02:27:26;;;;;;;30.80;12.45;;;13.80;99.90;;;;;;4978412;28;20405;-65
2022/05/26 02:29:52;;;;;;;40.40;13.43;;;13.80;99.90;;;;;;4978531;28;20172;-65
2022/05/26 02:32:22;;;;;;;33.10;13.40;;;13.80;99.90;;;;;;4973456;28;20496;-65
2022/05/26 02:34:50;;;;;;;37.85;13.05;;;13.80;99.90;;;;;;4991787;28;20408;-62
2022/05/26 02:37:17;;;;;;;35.70;12.38;;;13.90;99.90;;;;;;4976640;28;20044;-62
2022/05/26 02:39:43;;;;;;;35.60;12.75;;;13.90;99.90;;;;;;4974353;28;20049;-62
2022/05/26 02:42:10;;;;;;;34.92;13.10;;;13.90;99.90;;;;;;4986757;28;20034;-62
2022/05/26 02:44:37;;;;;;;39.78;11.95;;;13.90;99.90;;;;;;5002907;28;20062;-65
2022/05/26 02:47:18;;;;;;;37.85;12.13;;;13.90;99.90;;;;;;4994605;28;20493;-61
2022/05/26 02:50:15;;;;;;;30.05;11.68;;;13.90;99.90;;;;;;4994649;28;20433;-61
2022/05/26 02:53:05;;;;;;;36.67;12.38;;;13.90;99.90;;;;;;4974855;28;20051;-62
2022/05/26 02:55:54;;;;;;;31.33;12.05;;;13.90;99.90;;;;;;4990279;28;20045;-65
2022/05/26 02:58:57;;;;;;;30.60;11.82;;;14.00;99.90;;;;;;4985985;28;20053;-62
2022/05/26 03:01:40;;;;;;;30.70;11.07;;;14.00;99.90;;;;;;4984677;28;20046;-63
2022/05/26 03:04:17;;;;;;;32.95;11.23;;;13.90;99.90;;;;;;4993552;28;20050;-62
2022/05/26 03:07:07;;;;;;;33.22;11.15;;;13.90;99.90;;;;;;4989802;28;20045;-66
2022/05/26 03:09:34;;;;;;;36.70;12.02;;;14.00;99.90;;;;;;4991614;28;20281;-61
2022/05/26 03:12:00;;;;;;;44.65;12.05;;;13.90;99.90;;;;;;5006593;28;20053;-62
2022/05/26 03:14:26;;;;;;;32.53;10.18;;;14.00;99.90;;;;;;4993768;28;20476;-62
2022/05/26 03:16:52;;;;;;;33.53;11.15;;;14.00;99.90;;;;;;5000786;28;20049;-61
2022/05/26 03:19:18;;;;;;;38.15;10.80;;;13.90;99.90;;;;;;5013511;28;20516;-62
2022/05/26 03:21:44;;;;;;;34.92;10.77;;;13.90;99.90;;;;;;4996947;28;20042;-63
2022/05/26 03:24:10;;;;;;;36.17;9.85;;;13.90;99.90;;;;;;4976752;28;20093;-62
2022/05/26 03:26:36;;;;;;;40.13;10.40;;;13.90;99.90;;;;;;4993498;28;20045;-62
2022/05/26 03:29:03;;;;;;;36.70;10.23;;;14.00;99.90;;;;;;4992921;28;20039;-63
2022/05/26 03:31:30;;;;;;;33.25;9.93;;;13.90;99.90;;;;;;4996673;28;20073;-62
2022/05/26 03:42:13;;;;;;;34.47;8.88;;;13.90;99.90;;;;;;4984681;28;20038;-62
2022/05/26 03:44:39;;;;;;;29.05;8.23;;;13.90;99.90;;;;;;4976549;28;20042;-62
2022/05/26 03:47:05;;;;;;;29.35;7.68;;;13.90;99.90;;;;;;4992979;28;20038;-63
2022/05/26 03:49:31;;;;;;;32.88;8.20;;;13.90;99.90;;;;;;4994400;28;20034;-62
2022/05/26 03:51:57;;;;;;;30.67;6.88;;;13.90;99.90;;;;;;5001744;28;20038;-63
2022/05/26 03:54:23;;;;;;;30.60;7.57;;;13.90;99.90;;;;;;4996274;28;20042;-62
2022/05/26 03:56:49;;;;;;;31.48;6.78;;;13.90;99.90;;;;;;4973861;28;20049;-64
2022/05/26 03:59:15;;;;;;;23.48;6.00;;;13.90;99.90;;;;;;4986145;28;20042;-62
2022/05/26 04:01:41;;;;;;;25.45;6.13;;;13.90;99.90;;;;;;4998645;28;20042;-63
2022/05/26 04:04:07;;;;;;;18.90;5.18;;;13.90;99.90;;;;;;4993572;28;20073;-66
2022/05/26 04:06:33;;;;;;;20.95;5.47;;;13.80;99.90;;;;;;4991289;28;20114;-66
2022/05/26 04:08:59;;;;;;;23.38;5.20;;;13.80;99.90;;;;;;4983321;28;20133;-64
2022/05/26 04:11:25;;;;;;;19.15;4.20;;;13.90;99.90;;;;;;5013370;28;20042;-66
2022/05/26 04:13:52;;;;;;;22.55;4.30;;;13.80;99.90;;;;;;5005592;28;20046;-63
2022/05/26 04:16:18;;;;;;;16.45;4.03;;;13.80;99.90;;;;;;4993101;28;20053;-62
2022/05/26 04:18:44;;;;;;;20.85;4.75;;;13.80;99.90;;;;;;4975406;28;20068;-62
2022/05/26 04:21:12;;;;;;;12.15;3.90;;;13.80;99.90;;;;;;4992617;28;20038;-67
2022/05/26 04:23:38;;;;;;;17.15;3.30;;;13.70;99.90;;;;;;5005194;28;20030;-62
2022/05/26 04:26:05;;;;;;;14.27;3.42;;;13.70;99.90;;;;;;5012625;28;20042;-63
2022/05/26 04:28:31;;;;;;;17.70;3.22;;;13.70;99.90;;;;;;5012399;28;20049;-62
2022/05/26 04:30:56;;;;;;;15.07;3.55;;;13.70;99.90;;;;;;4984950;28;20041;-62
2022/05/26 04:33:23;;;;;;;14.25;3.50;;;13.60;99.90;;;;;;5005071;28;20129;-62
2022/05/26 04:35:48;;;;;;;15.35;3.17;;;13.60;99.90;;;;;;5008939;28;20510;-62
2022/05/26 04:38:14;;;;;;;15.93;3.22;;;13.60;99.90;;;;;;4993287;28;20037;-62
2022/05/26 04:40:40;;;;;;;12.90;2.95;;;13.60;99.90;;;;;;5012525;28;20068;-63
2022/05/26 04:43:06;;;;;;;15.80;3.95;;;13.60;99.90;;;;;;5012551;28;20073;-66
2022/05/26 04:45:32;;;;;;;14.63;3.22;;;13.50;99.90;;;;;;4988918;28;20046;-62
2022/05/26 04:47:58;;;;;;;14.27;3.45;;;13.50;99.90;;;;;;4973746;28;20046;-65
2022/05/26 04:50:24;;;;;;;18.30;3.97;;;13.60;99.90;;;;;;5002328;28;20125;-64
2022/05/26 04:52:50;;;;;;;20.00;4.10;;;13.60;99.90;;;;;;5012149;28;20487;-65
2022/05/26 04:55:16;;;;;;;13.60;3.83;;;13.60;99.90;;;;;;4996641;28;20038;-65
2022/05/26 04:57:41;;;;;;;19.73;4.22;;;13.60;99.90;;;;;;4992391;28;20559;-62
2022/05/26 05:00:10;;;;;;;15.98;3.58;;;13.70;99.90;;;;;;4992728;28;20138;-62
2022/05/26 05:02:36;;;;;;;15.13;3.97;;;13.70;99.90;;;;;;4973110;28;20034;-64
2022/05/26 05:05:03;;;;;;;13.82;3.88;;;13.80;99.90;;;;;;4991214;28;20042;-65
2022/05/26 05:07:29;;;;;;;15.35;3.30;;;13.80;99.90;;;;;;4980023;28;20053;-62
2022/05/26 05:09:55;;;;;;;15.68;3.53;;;13.80;99.90;;;;;;5008622;28;20038;-61
2022/05/26 05:12:22;;;;;;;16.25;3.60;;;13.90;99.90;;;;;;5011777;28;20064;-63
2022/05/26 05:14:50;;;;;;;11.98;3.10;;;13.90;99.90;;;;;;5011753;28;20416;-62
2022/05/26 05:17:18;;;;;;;16.73;3.00;;;14.00;99.90;;;;;;4994225;28;20396;-62
2022/05/26 05:19:44;;;;;;;14.55;3.13;;;14.00;99.90;;;;;;4994147;28;20054;-62
2022/05/26 05:22:19;;;;;;;15.68;3.58;;;14.00;99.90;;;;;;4987903;28;21279;-61
2022/05/26 05:25:06;;;;;;;13.98;3.30;;;14.10;99.90;;;;;;5038027;23;20110;-63
2022/05/26 05:27:39;;;;;;;15.40;3.38;;;14.10;99.90;;;;;;5029337;28;20036;-62
2022/05/26 05:30:12;;;;;;;16.25;3.08;;;14.20;99.90;;;;;;5032990;28;20119;-65
2022/05/26 05:32:51;;;;;;;17.23;3.30;;;14.20;99.90;;;;;;5051217;28;20049;-65
2022/05/26 05:35:24;;;;;;;10.85;3.10;;;14.20;99.90;;;;;;5032838;28;20487;-65
2022/05/26 05:37:50;;;;;;;13.48;3.35;;;14.30;99.90;;;;;;5050752;28;20045;-65
2022/05/26 05:40:16;;;;;;;15.43;2.92;;;14.30;99.90;;;;;;5030516;28;20048;-65
2022/05/26 05:42:41;;;;;;;11.88;2.95;;;14.30;99.90;;;;;;5050421;28;20102;-65
2022/05/26 05:45:08;;;;;;;12.13;2.63;;;14.40;99.90;;;;;;5051122;28;20163;-65
2022/05/26 05:47:34;;;;;;;12.65;2.72;;;14.50;99.90;;;;;;5049779;28;20403;-65
2022/05/26 05:49:59;;;;;;;6.93;1.88;;;14.50;99.90;;;;;;5050251;28;20033;-66
2022/05/26 05:52:25;;;;;;;13.25;2.42;;;14.50;99.90;;;;;;5048370;28;20479;-65
2022/05/26 05:54:50;;;;;;;10.40;2.08;;;14.50;99.90;;;;;;5032633;28;20380;-65
2022/05/26 05:57:16;;;;;;;9.13;1.92;;;14.50;99.90;;;;;;5049568;28;20033;-65
2022/05/26 05:59:42;;;;;;;9.68;2.50;;;14.50;99.90;;;;;;5049114;28;20491;-66
2022/05/26 06:02:08;;;;;;;7.72;2.10;;;14.50;99.90;;;;;;5050561;28;20037;-65
2022/05/26 06:04:41;;;;;;;9.88;2.22;;;14.50;99.90;;;;;;5028777;28;20406;-65
2022/05/26 06:07:18;;;;;;;9.07;2.58;;;14.40;99.90;;;;;;5049612;28;20423;-65
2022/05/26 06:09:45;;;;;;;7.32;2.00;;;14.40;99.90;;;;;;5022154;28;20063;-66
2022/05/26 06:12:12;;;;;;;11.52;2.28;;;14.40;99.90;;;;;;5021631;28;20125;-65
2022/05/26 06:14:39;;;;;;;7.45;1.90;;;14.40;99.90;;;;;;5041497;28;20033;-65
2022/05/26 06:17:07;;;;;;;8.52;2.67;;;14.50;99.90;;;;;;5038024;28;20411;-65
2022/05/26 06:19:33;;;;;;;8.40;2.00;;;14.60;99.90;;;;;;5037600;28;20033;-65
2022/05/26 06:21:59;;;;;;;9.00;2.10;;;14.60;99.90;;;;;;5035262;28;20037;-65
2022/05/26 06:24:25;;;;;;;4.32;1.33;;;14.70;99.90;;;;;;5036077;28;20096;-66
2022/05/26 06:26:51;;;;;;;6.03;1.73;;;14.80;99.90;;;;;;5018932;28;20407;-65
2022/05/26 06:30:02;;;;;;;5.82;1.50;;;14.90;99.90;;;;;;5028860;28;20040;-65
2022/05/26 06:37:31;;;;;;;4.18;1.50;;;15.10;99.90;;;;;;5016561;28;20487;-65
2022/05/26 06:39:57;;;;;;;8.50;1.70;;;15.20;99.90;;;;;;5031225;28;20084;-65
2022/05/26 06:42:24;;;;;;;6.40;1.42;;;15.20;99.90;;;;;;5036766;28;20505;-65
2022/05/26 06:44:50;;;;;;;8.85;1.55;;;15.30;99.90;;;;;;5034930;28;20042;-65
2022/05/26 06:47:18;;;;;;;9.82;1.65;;;15.40;99.90;;;;;;5019665;28;20056;-65
2022/05/26 06:49:45;;;;;;;8.05;1.40;;;15.40;99.90;;;;;;5016491;28;20056;-66
2022/05/26 06:52:12;;;;;;;8.88;1.42;;;15.40;99.90;;;;;;5035151;28;20386;-65
2022/05/26 06:54:41;;;;;;;6.25;1.38;;;15.40;99.90;;;;;;5019645;28;20040;-65
2022/05/26 06:57:08;;;;;;;5.03;1.42;;;15.50;99.90;;;;;;5016352;28;20280;-65
2022/05/26 06:59:34;;;;;;;7.30;1.35;;;15.50;99.90;;;;;;5017370;28;20029;-65
2022/05/26 07:02:00;;;;;;;4.32;1.30;;;15.60;99.90;;;;;;5013137;28;20116;-65
2022/05/26 07:04:26;;;;;;;7.97;1.55;;;15.70;99.90;;;;;;5049058;28;20125;-65
2022/05/26 07:06:53;;;;;;;5.70;1.40;;;15.70;99.90;;;;;;5049767;28;20086;-65
2022/05/26 07:09:20;;;;;;;6.78;1.48;;;15.80;99.90;;;;;;5048375;28;20033;-65
2022/05/26 07:11:46;;;;;;;7.28;1.42;;;15.80;99.90;;;;;;5046809;28;20483;-65
2022/05/26 07:14:13;;;;;;;6.78;1.50;;;15.90;99.90;;;;;;5049030;28;20384;-65
2022/05/26 07:16:39;;;;;;;6.63;1.40;;;15.90;99.90;;;;;;5032328;28;20045;-65
2022/05/26 07:19:05;;;;;;;5.95;1.27;;;15.90;99.90;;;;;;5048508;28;20045;-65
2022/05/26 07:21:31;;;;;;;6.68;1.65;;;15.90;99.90;;;;;;5047015;28;20388;-65
2022/05/26 07:23:57;;;;;;;7.15;1.50;;;15.90;99.90;;;;;;5053390;28;20128;-65
2022/05/26 07:26:24;;;;;;;6.75;1.35;;;16.00;99.90;;;;;;5043943;28;20510;-66
2022/05/26 07:28:51;;;;;;;4.15;1.20;;;16.00;99.90;;;;;;5037838;28;20041;-65
2022/05/26 07:31:29;;;;;;;;;;;;;;;;;;;;;
2022/05/26 07:33:55;;;;;;;4.55;1.10;;;16.10;99.90;;;;;;5041765;28;20037;-65
2022/05/26 07:41:57;;;;;;;3.42;1.20;;;16.20;99.90;;;;;;5024807;28;20041;-66
2022/05/26 07:44:24;;;;;;;7.93;1.70;;;16.20;99.90;;;;;;5052055;28;20457;-65
2022/05/26 07:46:49;;;;;;;5.22;1.50;;;16.30;99.90;;;;;;5052980;28;20041;-66
2022/05/26 07:49:15;;;;;;;7.40;1.23;;;16.30;99.90;;;;;;5049824;28;20033;-66
2022/05/26 07:51:40;;;;;;;4.90;1.20;;;16.30;99.90;;;;;;5052075;28;20041;-66
2022/05/26 07:54:06;;;;;;;6.55;1.48;;;16.30;99.90;;;;;;5049045;28;20072;-65
2022/05/26 07:56:34;;;;;;;4.50;1.25;;;16.40;99.90;;;;;;5053170;28;20170;-66
2022/05/26 07:58:59;;;;;;;5.45;1.08;;;16.40;99.90;;;;;;5035197;28;20048;-66
2022/05/26 08:01:25;;;;;;;5.05;1.25;;;16.40;99.90;;;;;;5045370;28;20033;-66
2022/05/26 08:03:53;;;;;;;7.32;1.48;;;16.40;99.90;;;;;;5044873;28;20128;-66
2022/05/26 08:06:19;;;;;;;5.82;1.27;;;16.40;99.90;;;;;;5019265;28;20379;-66
2022/05/26 08:08:45;;;;;;;4.85;0.95;;;16.30;99.90;;;;;;5038050;28;20050;-66
2022/05/26 08:11:11;;;;;;;5.47;1.15;;;16.30;99.90;;;;;;5026850;28;20033;-66
2022/05/26 08:13:36;;;;;;;8.23;1.08;;;16.30;99.90;;;;;;5022053;28;20075;-65
2022/05/26 08:16:05;;;;;;;4.82;1.02;;;16.30;99.90;;;;;;5036477;28;20473;-65
2022/05/26 08:18:31;;;;;;;5.75;1.15;;;16.20;99.90;;;;;;5021347;28;20042;-66
2022/05/26 08:21:09;;;;;;;7.20;1.52;;;16.20;99.90;;;;;;5037870;28;20051;-66
2022/05/26 08:23:35;;;;;;;6.75;1.20;;;16.20;99.90;;;;;;5038665;28;20041;-66
2022/05/26 08:26:00;;;;;;;3.33;1.10;;;16.50;99.90;;;;;;5039265;28;20395;-65
2022/05/26 08:28:26;;;;;;;5.18;1.30;;;16.70;99.90;;;;;;5041080;28;20040;-66
2022/05/26 08:30:51;;;;;;;4.43;1.20;;;16.90;99.90;;;;;;5039642;28;20081;-66
2022/05/26 08:33:17;;;;;;;4.38;1.00;;;16.90;99.90;;;;;;5038440;28;20043;-65
2022/05/26 08:35:42;;;;;;;3.47;1.13;;;16.90;99.90;;;;;;5042660;28;20045;-66
2022/05/26 08:38:08;;;;;;;3.17;1.20;;;17.10;99.90;;;;;;5039304;28;20068;-66
2022/05/26 08:40:46;;;;;;;5.72;1.08;;;17.30;99.90;;;;;;5041939;28;20510;-66
2022/05/26 08:43:18;;;;;;;4.32;0.90;;;17.60;99.90;;;;;;5040222;28;20372;-66
2022/05/26 08:45:52;;;;;;;3.40;1.08;;;17.80;99.90;;;;;;5041416;28;20116;-66
2022/05/26 08:49:02;;;;;;;4.45;1.10;;;17.90;99.90;;;;;;5040688;28;20036;-66
2022/05/26 08:51:43;;;;;;;3.95;1.00;;;17.90;99.90;;;;;;5042016;28;20048;-66
2022/05/26 08:54:23;;;;;;;2.67;1.08;;;17.80;99.90;;;;;;5051750;28;20439;-66
2022/05/26 08:56:50;;;;;;;4.72;1.17;;;17.80;99.90;;;;;;5006928;28;20048;-66
2022/05/26 08:59:20;;;;;;;5.45;1.67;;;17.90;99.90;;;;;;5023403;28;20127;-66
2022/05/26 09:01:46;;;;;;;5.22;1.40;;;18.00;99.90;;;;;;5023398;28;20337;-66
2022/05/26 09:04:11;;;;;;;4.80;1.20;;;18.10;99.90;;;;;;5042163;28;20043;-66
2022/05/26 09:15:05;;;;;;;4.78;1.35;;;19.20;99.90;;;;;;5022626;28;20049;-66
2022/05/26 09:17:31;;;;;;;5.43;1.30;;;19.40;99.90;;;;;;5047553;28;20075;-66
2022/05/26 09:19:58;;;;;;;5.75;1.20;;;19.60;98.90;;;;;;5025282;28;20065;-66
2022/05/26 09:22:40;;;;;;;5.80;1.10;;;19.60;98.30;;;;;;5047670;28;20048;-66
2022/05/26 09:25:11;;;;;;;6.68;1.38;;;19.60;97.30;;;;;;5030382;28;20128;-66
2022/05/26 09:27:38;;;;;;;5.28;1.13;;;19.60;97.70;;;;;;5044837;28;20082;-66
2022/05/26 09:30:21;;;;;;;6.82;1.40;;;19.70;96.40;;;;;;5045593;28;20041;-66
2022/05/26 09:32:47;;;;;;;4.72;1.45;;;19.90;96.50;;;;;;5028723;28;20047;-66
2022/05/26 09:35:26;;;;;;;4.22;1.20;;;19.80;97.00;;;;;;5027361;28;20345;-66
2022/05/26 09:37:58;;;;;;;5.60;1.30;;;19.80;97.20;;;;;;5047041;28;20045;-66
2022/05/26 09:40:31;;;;;;;;;;;19.90;97.20;;;;;;5045088;28;20045;-66
2022/05/26 09:43:17;;;;;;;3.97;1.20;;;19.80;96.20;;;;;;5043544;28;20270;-66
2022/05/26 09:45:53;;;;;;;4.50;1.38;;;19.50;96.90;;;;;;5028805;28;20037;-66
2022/05/26 09:48:26;;;;;;;3.75;0.85;;;19.20;96.00;;;;;;5045637;28;20073;-66
2022/05/26 09:51:26;;;;;;;7.57;1.08;;;18.90;96.70;;;;;;5028455;28;20598;-66
2022/05/26 09:53:53;;;;;;;4.35;1.25;;;18.90;97.80;;;;;;5045231;28;20041;-65
2022/05/26 09:56:40;;;;;;;3.70;1.10;;;18.90;98.00;;;;;;5045580;28;20063;-66
2022/05/26 09:59:34;;;;;;;5.18;1.35;;;18.80;97.80;;;;;;5045403;28;20586;-66
2022/05/26 10:02:11;;;;;;;4.97;1.30;;;18.60;98.80;;;;;;5034089;28;20115;-66
2022/05/26 10:04:44;;;;;;;6.35;1.20;;;18.50;99.20;;;;;;5020348;28;20045;-66
2022/05/26 10:07:27;;;;;;;5.38;1.30;;;18.50;99.50;;;;;;5023671;28;20102;-66
2022/05/26 10:10:12;;;;;;;11.93;1.70;;;18.30;99.30;;;;;;5023348;28;20052;-67
2022/05/26 10:13:03;;;;;;;6.38;1.30;;;18.20;99.30;;;;;;5019912;28;20041;-66
2022/05/26 10:16:07;;;;;;;5.35;1.50;;;18.10;99.60;;;;;;5021031;28;20029;-66
2022/05/26 10:19:16;;;;;;;5.72;2.15;;;18.00;99.80;;;;;;5041434;28;20316;-66
2022/05/26 10:22:06;;;;;;;4.13;1.20;;;17.80;99.90;;;;;;5050399;28;20333;-66
2022/05/26 10:24:38;;;;;;;5.72;1.77;;;17.90;99.90;;;;;;5029281;28;20049;-66
2022/05/26 10:27:22;;;;;;;7.70;2.00;;;18.00;99.90;;;;;;5026321;28;20045;-66
2022/05/26 10:30:09;;;;;;;6.80;2.33;;;18.40;99.90;;;;;;5042048;28;20075;-66
2022/05/26 10:33:15;;;;;;;6.13;2.17;;;18.60;99.90;;;;;;5043314;28;20087;-66
2022/05/26 10:35:51;;;;;;;7.35;2.88;;;18.70;99.90;;;;;;5021626;28;20131;-66
2022/05/26 10:38:38;;;;;;;6.07;1.90;;;19.10;99.90;;;;;;5029235;28;20283;-66
2022/05/26 10:41:29;;;;;;;5.97;1.92;;;19.30;99.50;;;;;;5016524;28;20038;-66
2022/05/26 10:44:09;;;;;;;6.85;2.10;;;19.50;99.90;;;;;;5034403;28;20050;-66
2022/05/26 10:46:38;;;;;;;7.40;1.92;;;19.90;99.20;;;;;;5022489;28;20054;-66
2022/05/26 10:49:46;;;;;;;7.18;1.75;;;20.10;98.60;;;;;;5018202;28;20043;-66
2022/05/26 10:52:17;;;;;;;12.00;2.13;;;20.20;97.30;;;;;;4943867;28;20043;-66
2022/05/26 10:54:53;;;;;;;6.50;1.60;;;20.50;95.90;;;;;;4952876;28;20079;-66
2022/05/26 10:57:25;;;;;;;11.45;2.05;;;20.50;94.60;;;;;;5011386;28;20057;-66
2022/05/26 11:00:00;;;;;;;5.68;1.50;;;20.70;94.10;;;;;;5047313;28;20048;-66
2022/05/26 11:02:53;;;;;;;4.47;1.65;;;20.90;94.20;;;;;;5052137;28;20080;-67
2022/05/26 11:05:43;;;;;;;5.35;1.13;;;21.10;91.80;;;;;;5053747;28;20502;-66
2022/05/26 11:08:33;;;;;;;6.22;1.83;;;21.20;91.80;;;;;;5032475;28;20047;-67
2022/05/26 11:11:02;;;;;;;4.85;1.48;;;21.10;92.20;;;;;;5032173;28;20124;-66
2022/05/26 11:13:42;;;;;;;4.90;1.50;;;21.10;92.30;;;;;;5053803;28;20040;-66
2022/05/26 11:19:43;;;;;;;6.20;1.92;;;21.20;91.00;;;;;;5030074;28;20123;-67
2022/05/26 11:22:11;;;;;;;7.30;1.50;;;21.40;90.40;;;;;;5050211;28;20509;-66
2022/05/26 11:24:38;;;;;;;5.38;1.48;;;21.30;90.70;;;;;;5053374;28;20514;-66
2022/05/26 11:27:15;;;;;;;6.47;1.30;;;21.20;90.20;;;;;;5053734;28;20033;-65
2022/05/26 11:29:46;;;;;;;5.82;1.30;;;21.10;88.90;;;;;;5049940;28;20380;-68
2022/05/26 11:38:21;;;;;;;6.20;1.58;;;21.40;89.60;;;;;;5034551;28;20052;-65
2022/05/26 11:41:00;;;;;;;7.60;1.60;;;21.50;88.70;;;;;;5035118;28;20057;-65
2022/05/26 11:43:26;;;;;;;4.93;1.52;;;21.60;89.10;;;;;;5033088;28;20530;-66
2022/05/26 11:45:53;;;;;;;4.85;1.50;;;21.80;89.10;;;;;;5045101;28;20037;-65
2022/05/26 11:48:31;;;;;;;6.25;1.40;;;21.80;87.30;;;;;;5051536;28;20037;-65
2022/05/26 11:51:01;;;;;;;4.00;1.40;;;21.80;87.40;;;;;;5053111;28;20041;-66
2022/05/26 11:53:38;;;;;;;5.47;1.58;;;21.80;87.30;;;;;;5033250;28;20475;-65
2022/05/26 11:56:22;;;;;;;5.80;1.60;;;21.70;85.40;;;;;;5053128;28;20091;-65
2022/05/26 11:59:21;;;;;;;5.55;1.50;;;21.50;86.70;;;;;;5030495;28;20384;-65
2022/05/26 12:01:59;;;;;;;5.57;1.38;;;21.40;87.60;;;;;;5047317;28;20041;-65
2022/05/26 12:04:30;;;;;;;7.30;1.70;;;21.50;87.60;;;;;;5030537;28;20036;-65
2022/05/26 12:06:56;;;;;;;4.70;1.55;;;21.50;86.40;;;;;;5052691;28;20045;-66
2022/05/26 12:09:34;;;;;;;5.38;1.50;;;21.40;87.90;;;;;;5031717;28;20124;-65
2022/05/26 12:12:07;;;;;;;6.57;1.45;;;21.40;87.50;;;;;;5052556;28;20490;-68
2022/05/26 12:14:59;;;;;;;5.15;1.70;;;21.30;86.60;;;;;;5032233;28;20396;-65
2022/05/26 12:17:30;;;;;;;5.35;1.50;;;21.40;86.90;;;;;;5050556;28;20048;-65
2022/05/26 12:19:59;;;;;;;8.93;1.60;;;21.50;82.60;;;;;;5033671;28;20142;-66
2022/05/26 12:22:26;;;;;;;6.50;1.70;;;21.60;83.50;;;;;;5052193;28;20037;-65
2022/05/26 12:25:06;;;;;;;5.43;1.50;;;21.70;84.60;;;;;;5034849;28;20231;-65
2022/05/26 12:27:55;;;;;;;8.98;1.38;;;21.90;83.60;;;;;;5028642;28;20049;-64
2022/05/26 12:30:41;;;;;;;5.53;1.40;;;21.90;80.90;;;;;;5044410;28;20086;-66
2022/05/26 12:33:21;;;;;;;4.30;1.45;;;21.70;79.50;;;;;;5034443;28;20087;-66
2022/05/26 12:36:09;;;;;;;7.10;1.60;;;21.60;81.10;;;;;;5031464;28;20349;-66
2022/05/26 12:39:14;;;;;;;7.10;1.80;;;21.40;82.80;;;;;;5047899;28;20064;-66
2022/05/26 12:42:07;;;;;;;7.63;2.13;;;21.60;84.30;;;;;;5046406;28;20063;-66
2022/05/26 12:44:38;;;;;;;9.38;1.67;;;21.80;84.00;;;;;;5028945;28;20045;-66
2022/05/26 12:47:16;;;;;;;;;;;22.00;83.20;;;;;;5034421;28;20040;-66
2022/05/26 12:49:54;;;;;;;6.85;1.67;;;22.00;82.70;;;;;;5033768;28;19916;-66
2022/05/26 12:52:31;;;;;;;7.28;1.50;;;22.10;80.70;;;;;;5052100;28;20036;-66
2022/05/26 12:55:34;;;;;;;8.45;1.80;;;21.90;79.10;;;;;;5034154;28;20565;-66
2022/05/26 12:58:09;;;;;;;6.63;1.95;;;21.80;78.00;;;;;;5047846;28;20037;-66
2022/05/26 13:00:44;;;;;;;8.02;1.80;;;21.80;80.10;;;;;;5034087;28;20103;-66
2022/05/26 13:03:12;;;;;;;5.35;1.60;;;21.70;80.40;;;;;;5033844;28;20411;-66
2022/05/26 13:05:41;;;;;;;8.93;2.00;;;21.60;81.70;;;;;;5033841;28;20483;-66
2022/05/26 13:08:23;;;;;;;8.80;2.00;;;21.50;82.00;;;;;;5046576;28;20028;-66
2022/05/26 13:10:52;;;;;;;9.73;1.85;;;21.50;81.60;;;;;;5046669;28;20135;-66
2022/05/26 13:13:29;;;;;;;5.60;2.28;;;21.60;82.90;;;;;;5050591;28;20048;-66
2022/05/26 13:16:26;;;;;;;9.65;1.92;;;21.50;82.20;;;;;;5033383;28;20051;-66
2022/05/26 13:18:54;;;;;;;6.05;1.98;;;21.40;81.30;;;;;;5029327;28;20084;-66
2022/05/26 13:21:23;;;;;;;7.18;1.80;;;21.10;82.10;;;;;;5047438;28;20298;-66
2022/05/26 13:23:50;;;;;;;9.10;2.10;;;21.00;83.20;;;;;;5051145;28;20040;-66
2022/05/26 13:26:18;;;;;;;8.30;1.92;;;21.00;82.40;;;;;;5051411;28;20466;-66
2022/05/26 13:28:49;;;;;;;7.97;1.85;;;20.90;81.10;;;;;;5030063;28;20106;-66
2022/05/26 13:34:03;;;;;;;7.55;1.83;;;20.80;80.10;;;;;;5048917;28;20136;-66
2022/05/26 13:36:37;;;;;;;8.98;2.00;;;20.70;80.90;;;;;;5032436;28;20094;-66
2022/05/26 13:39:11;;;;;;;6.53;1.83;;;20.60;80.90;;;;;;5049768;28;20102;-66
2022/05/26 13:41:39;;;;;;;8.27;2.30;;;20.50;83.40;;;;;;5031033;28;20483;-66
2022/05/26 13:44:07;;;;;;;8.20;1.90;;;20.40;84.30;;;;;;5045210;28;20044;-66
2022/05/26 13:46:46;;;;;;;9.32;2.58;;;20.30;85.10;;;;;;5046943;28;20047;-66
2022/05/26 13:49:32;;;;;;;13.13;2.47;;;20.30;85.70;;;;;;5050549;28;20125;-66
2022/05/26 13:52:05;;;;;;;7.07;2.13;;;20.20;86.40;;;;;;5050943;28;20380;-66